Time;durP1;ratioP1;P1;durP2;ratioP2;P2;SDS_P1;SDS_P2;PMS_P1;PMS_P2;Temp;Humidity;BMP_temperature;BMP_pressure;BME280_temperature;BME280_humidity;BME280_pressure;Samples;Min_cycle;Max_cycle;Signal;HPM_P1;HPM_P2
2022/09/20 00:01:42;;;;;;;;;;;;;;;13.57;79.84;102267.75;5051914;28;19967;-30
2022/09/20 00:04:12;;;;;;;;;;;;;;;13.60;79.66;102271.91;5062009;28;19929;-31
2022/09/20 00:06:39;;;;;;;;;;;;;;;13.59;79.41;102265.47;5051980;28;19928;-36
2022/09/20 00:09:07;;;;;;;;;;;;;;;13.61;79.56;102280.03;5062289;28;20336;-34
2022/09/20 00:11:35;;;;;;;;;;;;;;;13.60;79.71;102269.94;5052617;28;19928;-34
2022/09/20 00:14:04;;;;;;;;;;;;;;;13.61;79.63;102265.19;5061348;28;19963;-31
2022/09/20 00:16:33;;;;;;;;;;;;;;;13.59;79.46;102264.66;5051225;28;20349;-31
2022/09/20 00:19:02;;;;;;;;;;;;;;;13.58;79.27;102265.78;5066139;28;20340;-32
2022/09/20 00:21:35;;;;;;;;;;;;;;;13.56;78.81;102265.22;5055003;28;19950;-38
2022/09/20 00:24:03;;;;;;;;;;;;;;;13.55;79.09;102269.16;5064235;28;20385;-32
2022/09/20 00:26:30;;;;;;;;;;;;;;;13.52;78.68;102264.09;5051028;28;20478;-34
2022/09/20 00:28:59;;;;;;;;;;;;;;;13.50;78.67;102269.16;5061166;28;19924;-33
2022/09/20 00:31:26;;;;;;;;;;;;;;;13.47;78.85;102258.50;5051302;28;19925;-33
2022/09/20 00:36:41;;;;;;;;;;;;;;;13.39;79.54;102257.09;5050318;28;19982;-32
2022/09/20 00:39:10;;;;;;;;;;;;;;;13.35;79.20;102254.06;5054925;28;19933;-32
2022/09/20 00:41:37;;;;;;;;;;;;;;;13.30;78.84;102262.47;5070185;28;19929;-32
2022/09/20 00:44:20;;;;;;;;;;;;;;;13.27;78.37;102254.63;5060730;28;20452;-33
2022/09/20 00:46:47;;;;;;;;;;;;;;;13.23;78.36;102264.72;5070579;28;20412;-37
2022/09/20 00:49:17;;;;;;;;;;;;;;;13.21;78.20;102266.13;5067437;28;19974;-32
2022/09/20 00:51:48;;;;;;;;;;;;;;;13.15;78.02;102262.50;5052790;28;19998;-32
2022/09/20 00:54:17;;;;;;;;;;;;;;;13.12;78.11;102274.25;5059719;28;19935;-32
2022/09/20 00:56:48;;;;;;;;;;;;;;;13.05;77.62;102268.91;5053549;28;20028;-32
2022/09/20 00:59:19;;;;;;;;;;;;;;;13.02;77.64;102265.84;5057530;28;20308;-34
2022/09/20 01:01:49;;;;;;;;;;;;;;;12.97;77.51;102269.50;5056631;28;20400;-33
2022/09/20 01:04:20;;;;;;;;;;;;;;;12.93;77.18;102264.72;5059246;28;20028;-36
2022/09/20 01:06:51;;;;;;;;;;;;;;;12.87;76.99;102272.28;5060497;28;19968;-33
2022/09/20 01:09:19;;;;;;;;;;;;;;;12.84;75.85;102266.41;5058767;28;19924;-33
2022/09/20 01:11:46;;;;;;;;;;;;;;;12.81;75.48;102275.34;5061102;28;19983;-32
2022/09/20 01:14:15;;;;;;;;;;;;;;;12.78;75.49;102268.38;5056575;28;20407;-32
2022/09/20 01:16:43;;;;;;;;;;;;;;;12.76;75.59;102270.63;5063465;28;19952;-32
2022/09/20 01:19:16;;;;;;;;;;;;;;;12.75;74.90;102269.78;5054985;28;19929;-33
2022/09/20 01:21:45;;;;;;;;;;;;;;;12.74;74.14;102261.66;5067685;28;20008;-33
2022/09/20 01:24:21;;;;;;;;;;;;;;;12.72;74.32;102259.13;5054686;28;19981;-32
2022/09/20 01:26:58;;;;;;;;;;;;;;;12.70;74.36;102258.56;5065224;28;19929;-32
2022/09/20 01:29:37;;;;;;;;;;;;;;;12.70;74.92;102266.13;5055093;28;19970;-31
2022/09/20 01:32:09;;;;;;;;;;;;;;;12.67;74.29;102267.53;5073205;28;19987;-31
2022/09/20 01:34:37;;;;;;;;;;;;;;;12.67;73.56;102261.06;5072357;28;19935;-31
2022/09/20 01:37:06;;;;;;;;;;;;;;;12.67;73.62;102255.47;5062398;28;20389;-34
2022/09/20 01:39:39;;;;;;;;;;;;;;;12.66;73.04;102253.78;5071360;28;20416;-31
2022/09/20 01:42:09;;;;;;;;;;;;;;;12.64;72.69;102256.88;5062332;28;19925;-32
2022/09/20 01:44:41;;;;;;;;;;;;;;;12.62;72.91;102261.91;5072742;28;19925;-31
2022/09/20 01:47:13;;;;;;;;;;;;;;;12.64;73.97;102256.88;5067521;28;19975;-32
2022/09/20 01:49:45;;;;;;;;;;;;;;;12.65;74.90;102252.94;5064298;28;19924;-31
2022/09/20 01:52:38;;;;;;;;;;;;;;;12.66;75.69;102254.63;5067544;28;20107;-30
2022/09/20 01:55:23;;;;;;;;;;;;;;;12.67;76.54;102250.72;5054876;28;19925;-30
2022/09/20 01:58:08;;;;;;;;;;;;;;;12.68;76.16;102252.41;5061903;28;19924;-34
2022/09/20 02:00:46;;;;;;;;;;;;;;;12.68;76.51;102258.00;5070780;28;20007;-30
2022/09/20 02:03:46;;;;;;;;;;;;;;;12.68;76.76;102258.00;5063717;28;19925;-30
2022/09/20 02:06:19;;;;;;;;;;;;;;;12.67;76.65;102255.47;5068216;28;19985;-34
2022/09/20 02:09:08;;;;;;;;;;;;;;;12.64;76.81;102254.06;5059660;28;19925;-31
2022/09/20 02:11:40;;;;;;;;;;;;;;;12.64;78.55;102259.66;5059556;28;19975;-30
2022/09/20 02:14:23;;;;;;;;;;;;;;;12.63;81.30;102260.78;5056308;28;20378;-30
2022/09/20 02:16:54;;;;;;;;;;;;;;;12.63;83.53;102260.78;5060145;28;19970;-30
2022/09/20 02:19:33;;;;;;;;;;;;;;;12.63;85.61;102259.94;5057433;28;19928;-31
2022/09/20 02:22:10;;;;;;;;;;;;;;;12.59;87.09;102256.84;5062208;28;19983;-34
2022/09/20 02:24:41;;;;;;;;;;;;;;;12.57;88.10;102261.94;5056637;28;20306;-31
2022/09/20 02:27:17;;;;;;;;;;;;;;;12.53;89.28;102262.75;5058624;28;19924;-34
2022/09/20 02:29:48;;;;;;;;;;;;;;;12.49;90.17;102265.25;5056794;28;19936;-32
2022/09/20 02:32:28;;;;;;;;;;;;;;;12.46;90.86;102264.97;5058850;28;19929;-31
2022/09/20 02:35:06;;;;;;;;;;;;;;;12.40;91.32;102266.91;5056159;28;19928;-34
2022/09/20 02:37:45;;;;;;;;;;;;;;;12.36;91.55;102266.66;5060312;28;19925;-33
2022/09/20 02:40:19;;;;;;;;;;;;;;;12.31;92.03;102258.25;5055805;28;20290;-31
2022/09/20 02:42:50;;;;;;;;;;;;;;;12.29;92.75;102260.47;5059413;28;19932;-34
2022/09/20 02:45:22;;;;;;;;;;;;;;;12.26;93.32;102262.97;5056657;28;19978;-33
2022/09/20 02:47:53;;;;;;;;;;;;;;;12.25;94.09;102266.88;5059057;28;19994;-33
2022/09/20 02:50:24;;;;;;;;;;;;;;;12.24;94.13;102262.41;5054908;28;19968;-36
2022/09/20 02:53:05;;;;;;;;;;;;;;;12.22;94.60;102261.84;5057670;28;20327;-32
2022/09/20 02:55:38;;;;;;;;;;;;;;;12.21;94.79;102268.56;5056636;28;19975;-36
2022/09/20 02:58:16;;;;;;;;;;;;;;;12.21;95.49;102274.16;5057808;28;19928;-34
2022/09/20 03:00:45;;;;;;;;;;;;;;;12.18;96.00;102266.34;5056801;28;19979;-32
2022/09/20 03:03:18;;;;;;;;;;;;;;;12.16;95.74;102266.59;5056638;28;19975;-31
2022/09/20 03:05:51;;;;;;;;;;;;;;;12.13;95.11;102269.94;5058105;28;19970;-31
2022/09/20 03:08:29;;;;;;;;;;;;;;;12.10;94.57;102269.66;5056611;28;19935;-31
2022/09/20 03:11:03;;;;;;;;;;;;;;;12.07;94.04;102269.09;5055904;28;19925;-34
2022/09/20 03:13:39;;;;;;;;;;;;;;;12.06;93.01;102274.94;5054843;28;19950;-30
2022/09/20 03:16:11;;;;;;;;;;;;;;;12.03;91.49;102262.34;5056051;28;19924;-30
2022/09/20 03:18:47;;;;;;;;;;;;;;;12.03;90.00;102269.91;5054525;28;19940;-31
2022/09/20 03:21:25;;;;;;;;;;;;;;;12.03;88.61;102270.75;5057451;28;19925;-32
2022/09/20 03:23:56;;;;;;;;;;;;;;;12.05;87.35;102265.72;5054880;28;19960;-34
2022/09/20 03:26:32;;;;;;;;;;;;;;;12.07;86.14;102271.03;5057731;28;19925;-31
2022/09/20 03:29:02;;;;;;;;;;;;;;;12.07;85.55;102268.25;5056507;28;19978;-31
2022/09/20 03:31:37;;;;;;;;;;;;;;;12.06;84.17;102260.97;5057916;28;20027;-31
2022/09/20 03:34:13;;;;;;;;;;;;;;;12.04;83.18;102266.84;5055009;28;19932;-30
2022/09/20 03:36:55;;;;;;;;;;;;;;;12.05;82.78;102267.66;5058354;28;19998;-31
2022/09/20 03:39:43;;;;;;;;;;;;;;;12.05;82.59;102267.66;5055840;28;20401;-31
2022/09/20 03:42:15;;;;;;;;;;;;;;;12.06;82.63;102264.59;5055825;28;20003;-31
2022/09/20 03:45:07;;;;;;;;;;;;;;;12.06;82.66;102270.19;5057128;28;19924;-31
2022/09/20 03:47:43;;;;;;;;;;;;;;;12.08;82.42;102261.53;5053970;28;19971;-31
2022/09/20 03:50:20;;;;;;;;;;;;;;;12.10;82.18;102272.44;5062189;28;19932;-33
2022/09/20 03:52:57;;;;;;;;;;;;;;;12.12;82.06;102275.81;5052679;28;19975;-31
2022/09/20 03:55:42;;;;;;;;;;;;;;;12.16;81.62;102274.16;5060453;28;19928;-31
2022/09/20 03:58:16;;;;;;;;;;;;;;;12.22;81.66;102270.22;5051522;28;19978;-31
2022/09/20 04:00:52;;;;;;;;;;;;;;;12.28;81.74;102274.75;5061108;28;19924;-33
2022/09/20 04:03:28;;;;;;;;;;;;;;;12.34;83.77;102282.88;5051658;28;19978;-32
2022/09/20 04:06:09;;;;;;;;;;;;;;;12.41;86.26;102289.03;5061642;28;20335;-31
2022/09/20 04:08:48;;;;;;;;;;;;;;;12.50;90.31;102286.53;5071526;28;19982;-32
2022/09/20 04:11:20;;;;;;;;;;;;;;;12.57;92.68;102287.13;5067352;28;20027;-31
2022/09/20 04:13:50;;;;;;;;;;;;;;;12.61;94.33;102279.81;5070303;28;19925;-30
2022/09/20 04:16:23;;;;;;;;;;;;;;;12.65;95.49;102291.31;5067066;28;19932;-32
2022/09/20 04:18:55;;;;;;;;;;;;;;;12.66;96.75;102293.84;5051476;28;19932;-31
2022/09/20 04:21:28;;;;;;;;;;;;;;;12.66;97.81;102284.59;5057298;28;19932;-31
2022/09/20 04:23:59;;;;;;;;;;;;;;;12.65;98.49;102289.34;5069968;28;19932;-31
2022/09/20 04:26:28;;;;;;;;;;;;;;;12.64;99.09;102287.69;5061344;28;19928;-32
2022/09/20 04:28:58;;;;;;;;;;;;;;;12.62;99.78;102277.88;5067840;28;19925;-33
2022/09/20 04:31:33;;;;;;;;;;;;;;;12.58;100.00;102291.63;5063171;28;19971;-32
2022/09/20 04:34:01;;;;;;;;;;;;;;;12.56;100.00;102279.84;5067012;28;20050;-34
2022/09/20 04:36:54;;;;;;;;;;;;;;;12.54;100.00;102284.88;5064617;28;19983;-32
2022/09/20 04:39:25;;;;;;;;;;;;;;;12.52;100.00;102281.50;5072929;28;20328;-31
2022/09/20 04:42:07;;;;;;;;;;;;;;;12.51;100.00;102279.00;5065349;28;20302;-32
2022/09/20 04:44:57;;;;;;;;;;;;;;;12.49;100.00;102275.63;5073277;28;20385;-31
2022/09/20 04:47:43;;;;;;;;;;;;;;;12.48;100.00;102283.19;5062261;28;19982;-31
2022/09/20 04:50:38;;;;;;;;;;;;;;;12.46;100.00;102282.63;5069601;28;20409;-31
2022/09/20 04:53:21;;;;;;;;;;;;;;;12.46;100.00;102285.41;5062547;28;19936;-33
2022/09/20 04:55:50;;;;;;;;;;;;;;;12.46;100.00;102284.56;5072372;28;19924;-32
2022/09/20 04:58:41;;;;;;;;;;;;;;;12.44;100.00;102290.44;5062010;28;19975;-33
2022/09/20 05:01:23;;;;;;;;;;;;;;;12.45;100.00;102291.28;5061934;28;19987;-32
2022/09/20 05:04:10;;;;;;;;;;;;;;;12.42;100.00;102287.91;5070976;28;19999;-33
2022/09/20 05:07:08;;;;;;;;;;;;;;;12.42;100.00;102287.91;5070094;28;19970;-33
2022/09/20 05:09:47;;;;;;;;;;;;;;;12.45;100.00;102285.69;5002053;28;19925;-32
2022/09/20 05:12:26;;;;;;;;;;;;;;;12.44;100.00;102287.66;5050662;28;19982;-32
2022/09/20 05:15:04;;;;;;;;;;;;;;;12.45;100.00;102289.31;5064122;28;19943;-33
2022/09/20 05:17:36;;;;;;;;;;;;;;;12.46;100.00;102295.78;5067781;28;20070;-32
2022/09/20 05:20:13;;;;;;;;;;;;;;;12.47;100.00;102292.69;5065173;28;19963;-31
2022/09/20 05:22:59;;;;;;;;;;;;;;;12.51;100.00;102295.78;5061155;28;19947;-32
2022/09/20 05:25:37;;;;;;;;;;;;;;;12.56;100.00;102299.44;5051722;28;20465;-32
2022/09/20 05:28:08;;;;;;;;;;;;;;;12.61;100.00;102305.03;5057855;28;19990;-32
2022/09/20 05:30:39;;;;;;;;;;;;;;;12.67;98.85;102300.28;5057218;28;19972;-33
2022/09/20 05:33:13;;;;;;;;;;;;;;;12.74;98.40;102314.88;5056706;28;19963;-32
2022/09/20 05:35:43;;;;;;;;;;;;;;;12.82;99.24;102319.06;5058761;28;19926;-32
2022/09/20 05:38:16;;;;;;;;;;;;;;;12.89;100.00;102314.03;5055335;28;19987;-32
2022/09/20 05:40:56;;;;;;;;;;;;;;;12.96;100.00;102325.81;5068482;28;19979;-32
2022/09/20 05:43:27;;;;;;;;;;;;;;;12.95;100.00;102319.38;5056710;28;19940;-31
2022/09/20 05:46:10;;;;;;;;;;;;;;;12.95;100.00;102332.53;5064652;28;20281;-32
2022/09/20 05:48:40;;;;;;;;;;;;;;;12.88;100.00;102345.97;5069452;28;20416;-32
2022/09/20 05:51:13;;;;;;;;;;;;;;;12.82;100.00;102344.28;5058871;28;19948;-32
2022/09/20 05:53:50;;;;;;;;;;;;;;;12.75;100.00;102348.22;5055733;28;19929;-32
2022/09/20 05:56:26;;;;;;;;;;;;;;;12.72;100.00;102347.91;5059604;28;19929;-31
2022/09/20 05:59:01;;;;;;;;;;;;;;;12.70;100.00;102353.78;5055242;28;20393;-33
2022/09/20 06:01:32;;;;;;;;;;;;;;;12.68;100.00;102353.22;5059242;28;19924;-35
2022/09/20 06:04:07;;;;;;;;;;;;;;;12.68;100.00;102358.00;5060112;28;19925;-32
2022/09/20 06:06:44;;;;;;;;;;;;;;;12.66;100.00;102358.25;5060023;28;19944;-31
2022/09/20 06:09:24;;;;;;;;;;;;;;;12.67;100.00;102350.69;5056848;28;19929;-34
2022/09/20 06:12:00;;;;;;;;;;;;;;;12.69;100.00;102349.31;5059904;28;19975;-36
2022/09/20 06:14:36;;;;;;;;;;;;;;;12.74;100.00;102352.13;5056712;28;19977;-35
2022/09/20 06:17:07;;;;;;;;;;;;;;;12.75;100.00;102359.41;5059545;28;19983;-34
2022/09/20 06:19:38;;;;;;;;;;;;;;;12.77;100.00;102362.78;5056236;28;19959;-36
2022/09/20 06:22:12;;;;;;;;;;;;;;;12.79;100.00;102368.06;5069922;28;19924;-34
2022/09/20 06:24:43;;;;;;;;;;;;;;;12.82;100.00;102363.88;5068490;28;20394;-34
2022/09/20 06:27:14;;;;;;;;;;;;;;;12.84;100.00;102367.25;5060421;28;19971;-34
2022/09/20 06:29:44;;;;;;;;;;;;;;;12.87;100.00;102355.50;5054647;28;20445;-37
2022/09/20 06:32:16;;;;;;;;;;;;;;;12.89;100.00;102347.66;5062468;28;19928;-36
2022/09/20 06:34:43;;;;;;;;;;;;;;;12.93;100.00;102346.00;5053247;28;19924;-33
2022/09/20 06:43:15;;;;;;;;;;;;;;;13.03;100.00;102357.19;5053986;28;19959;-34
2022/09/20 06:45:43;;;;;;;;;;;;;;;13.05;100.00;102360.56;5056200;28;20006;-36
2022/09/20 06:48:12;;;;;;;;;;;;;;;13.07;100.00;102363.91;5056042;28;19975;-34
2022/09/20 06:50:42;;;;;;;;;;;;;;;13.06;100.00;102359.44;5067007;28;19951;-37
2022/09/20 06:53:11;;;;;;;;;;;;;;;13.06;100.00;102363.09;5065064;28;19974;-37
2022/09/20 06:55:41;;;;;;;;;;;;;;;13.02;100.00;102364.75;5068232;28;19928;-35
2022/09/20 06:58:08;;;;;;;;;;;;;;;12.95;100.00;102364.22;5063190;28;19928;-35
2022/09/20 07:00:38;;;;;;;;;;;;;;;12.92;100.00;102367.56;5070171;28;19924;-36
2022/09/20 07:03:06;;;;;;;;;;;;;;;12.87;100.00;102359.13;5071390;28;20359;-36
2022/09/20 07:05:34;;;;;;;;;;;;;;;12.87;100.00;102361.94;5070766;28;19929;-33
2022/09/20 07:08:02;;;;;;;;;;;;;;;12.87;100.00;102367.53;5064736;28;19928;-36
2022/09/20 07:10:29;;;;;;;;;;;;;;;12.82;100.00;102370.31;5051981;28;19978;-37
2022/09/20 07:12:59;;;;;;;;;;;;;;;12.80;100.00;102378.16;5068191;28;19928;-32
2022/09/20 07:15:27;;;;;;;;;;;;;;;12.77;100.00;102374.00;5071809;28;19952;-34
2022/09/20 07:17:55;;;;;;;;;;;;;;;12.74;100.00;102374.53;5064643;28;20028;-33
2022/09/20 07:20:23;;;;;;;;;;;;;;;12.73;100.00;102384.06;5052161;28;19929;-32
2022/09/20 07:22:52;;;;;;;;;;;;;;;12.75;100.00;102380.97;5066579;28;19964;-32
2022/09/20 07:25:19;;;;;;;;;;;;;;;12.78;100.00;102383.22;5051674;28;19932;-31
2022/09/20 07:27:49;;;;;;;;;;;;;;;12.82;100.00;102386.28;5063446;28;19924;-38
2022/09/20 07:30:17;;;;;;;;;;;;;;;12.83;100.00;102387.97;5051048;28;19982;-31
2022/09/20 07:32:45;;;;;;;;;;;;;;;12.84;100.00;102386.88;5055637;28;20481;-33
2022/09/20 07:35:15;;;;;;;;;;;;;;;12.88;100.00;102394.44;5070286;28;19924;-33
2022/09/20 07:37:42;;;;;;;;;;;;;;;12.93;100.00;102396.41;5062032;28;20341;-31
2022/09/20 07:40:11;;;;;;;;;;;;;;;12.96;100.00;102401.47;5067930;28;19960;-32
2022/09/20 07:42:39;;;;;;;;;;;;;;;12.96;100.00;102407.91;5064837;28;19932;-33
2022/09/20 07:45:07;;;;;;;;;;;;;;;12.95;100.00;102414.66;5065552;28;19924;-33
2022/09/20 07:47:35;;;;;;;;;;;;;;;12.94;100.00;102412.97;5066588;28;19925;-32
2022/09/20 07:50:02;;;;;;;;;;;;;;;12.95;100.00;102409.03;5065706;28;20363;-33
2022/09/20 07:52:31;;;;;;;;;;;;;;;13.00;100.00;102403.41;5066185;28;20359;-32
2022/09/20 07:54:59;;;;;;;;;;;;;;;13.10;100.00;102405.41;5060891;28;19928;-33
2022/09/20 07:57:26;;;;;;;;;;;;;;;13.16;100.00;102393.13;5052692;28;20081;-34
2022/09/20 07:59:54;;;;;;;;;;;;;;;13.30;100.00;102404.63;5061953;28;19965;-36
2022/09/20 08:02:21;;;;;;;;;;;;;;;13.43;100.00;102412.47;5052529;28;19928;-34
2022/09/20 08:04:49;;;;;;;;;;;;;;;13.55;100.00;102406.56;5061661;28;19940;-33
2022/09/20 08:07:17;;;;;;;;;;;;;;;13.62;100.00;102415.53;5051286;28;20390;-32
2022/09/20 08:09:45;;;;;;;;;;;;;;;13.67;100.00;102418.34;5063253;28;20413;-34
2022/09/20 08:12:13;;;;;;;;;;;;;;;13.71;100.00;102413.84;5052712;28;19956;-34
2022/09/20 08:15:01;;;;;;;;;;;;;;;13.75;100.00;102424.22;5071482;28;20007;-34
2022/09/20 08:17:28;;;;;;;;;;;;;;;13.80;100.00;102420.56;5075505;28;19929;-35
2022/09/20 08:19:56;;;;;;;;;;;;;;;13.87;100.00;102423.09;5061547;28;19929;-32
2022/09/20 08:22:23;;;;;;;;;;;;;;;13.90;100.00;102428.13;5063661;28;19928;-35
2022/09/20 08:24:52;;;;;;;;;;;;;;;13.92;100.00;102429.53;5067480;28;19986;-35
2022/09/20 08:27:20;;;;;;;;;;;;;;;13.95;100.00;102423.34;5053188;28;19933;-34
2022/09/20 08:29:48;;;;;;;;;;;;;;;14.03;100.00;102425.56;5066449;28;19971;-32
2022/09/20 08:32:15;;;;;;;;;;;;;;;14.17;100.00;102427.78;5055271;28;19971;-36
2022/09/20 08:34:43;;;;;;;;;;;;;;;14.35;100.00;102421.56;5063794;28;19978;-34
2022/09/20 08:37:15;;;;;;;;;;;;;;;14.56;100.00;102427.97;5056970;28;19928;-33
2022/09/20 08:39:43;;;;;;;;;;;;;;;14.80;100.00;102432.59;5062824;28;19971;-32
2022/09/20 08:42:29;;;;;;;;;;;;;;;15.02;100.00;102434.16;5056823;28;19936;-32
2022/09/20 08:45:11;;;;;;;;;;;;;;;15.19;100.00;102437.41;5064852;28;19935;-33
2022/09/20 08:47:50;;;;;;;;;;;;;;;15.34;100.00;102439.28;5054433;28;20271;-32
2022/09/20 08:50:24;;;;;;;;;;;;;;;15.53;100.00;102434.63;5067401;28;19975;-33
2022/09/20 08:52:53;;;;;;;;;;;;;;;15.74;100.00;102446.59;5055878;28;19925;-34
2022/09/20 08:55:30;;;;;;;;;;;;;;;16.04;100.00;102440.63;5063670;28;19932;-33
2022/09/20 08:58:04;;;;;;;;;;;;;;;16.19;100.00;102434.00;5055975;28;19987;-33
2022/09/20 09:00:36;;;;;;;;;;;;;;;16.20;99.90;102447.78;5063996;28;19929;-33
2022/09/20 09:03:04;;;;;;;;;;;;;;;16.27;99.50;102444.63;5055901;28;19929;-33
2022/09/20 09:05:33;;;;;;;;;;;;;;;16.29;97.92;102438.69;5061819;28;19982;-33
2022/09/20 09:08:04;;;;;;;;;;;;;;;16.28;95.53;102442.63;5058012;28;19925;-32
2022/09/20 09:10:36;;;;;;;;;;;;;;;16.25;93.87;102444.06;5060494;28;19967;-33
2022/09/20 09:13:14;;;;;;;;;;;;;;;16.27;93.56;102449.41;5058854;28;19925;-33
2022/09/20 09:15:43;;;;;;;;;;;;;;;16.30;92.09;102440.38;5059793;28;19924;-34
2022/09/20 09:18:11;;;;;;;;;;;;;;;16.33;91.00;102443.44;5059799;28;19925;-33
2022/09/20 09:20:41;;;;;;;;;;;;;;;16.48;92.36;102437.59;5058780;28;19925;-33
2022/09/20 09:23:09;;;;;;;;;;;;;;;16.75;93.17;102445.47;5067316;28;19925;-32
2022/09/20 09:25:37;;;;;;;;;;;;;;;16.92;89.38;102444.94;5071167;28;19924;-33
2022/09/20 09:28:13;;;;;;;;;;;;;;;17.00;88.94;102438.63;5064605;28;19960;-33
2022/09/20 09:30:41;;;;;;;;;;;;;;;17.01;84.84;102445.09;5071798;28;19928;-36
2022/09/20 09:33:22;;;;;;;;;;;;;;;17.00;83.69;102447.06;5063805;28;19924;-34
2022/09/20 09:35:55;;;;;;;;;;;;;;;17.03;83.22;102442.81;5072160;28;19932;-33
2022/09/20 09:38:23;;;;;;;;;;;;;;;17.09;82.24;102441.59;5063090;28;19925;-33
2022/09/20 09:40:52;;;;;;;;;;;;;;;17.19;82.27;102447.06;5072312;28;20271;-33
2022/09/20 09:43:25;;;;;;;;;;;;;;;17.51;84.67;102441.50;5061577;28;20109;-33
2022/09/20 09:45:54;;;;;;;;;;;;;;;17.79;83.45;102445.25;5072506;28;19982;-34
2022/09/20 09:48:24;;;;;;;;;;;;;;;17.88;80.89;102446.25;5062106;28;20339;-33
2022/09/20 09:51:07;;;;;;;;;;;;;;;17.86;79.17;102445.72;5054364;28;19925;-33
2022/09/20 09:53:35;;;;;;;;;;;;;;;17.76;77.75;102450.72;5064580;28;19928;-33
2022/09/20 09:56:27;;;;;;;;;;;;;;;17.66;76.54;102451.72;5054746;28;19929;-33
2022/09/20 09:59:03;;;;;;;;;;;;;;;17.61;77.38;102451.75;5055946;28;19963;-33
2022/09/20 10:01:37;;;;;;;;;;;;;;;17.72;77.99;102458.13;5072037;28;19979;-34
2022/09/20 10:04:08;;;;;;;;;;;;;;;18.13;80.30;102456.22;5062080;28;19970;-33
2022/09/20 10:06:43;;;;;;;;;;;;;;;18.37;75.63;102450.41;5070473;28;20324;-33
2022/09/20 10:09:25;;;;;;;;;;;;;;;18.71;77.24;102458.47;5064494;28;19928;-33
2022/09/20 10:11:59;;;;;;;;;;;;;;;19.24;73.95;102446.53;5053936;28;19933;-34
2022/09/20 10:14:37;;;;;;;;;;;;;;;19.73;73.85;102444.78;5062106;28;19977;-34
2022/09/20 10:17:15;;;;;;;;;;;;;;;20.35;71.28;102447.63;5071830;28;19981;-33
2022/09/20 10:19:49;;;;;;;;;;;;;;;20.93;68.22;102442.50;5088006;28;20282;-38
2022/09/20 10:22:22;;;;;;;;;;;;;;;21.33;62.71;102448.06;5069316;28;20408;-35
2022/09/20 10:24:54;;;;;;;;;;;;;;;21.53;60.56;102455.94;5072874;28;20344;-41
2022/09/20 10:27:30;;;;;;;;;;;;;;;21.87;57.79;102445.69;5070744;28;20012;-39
2022/09/20 10:30:02;;;;;;;;;;;;;;;22.33;56.71;102448.59;5061953;28;19971;-34
2022/09/20 10:32:41;;;;;;;;;;;;;;;22.54;55.76;102450.66;5069543;28;19928;-37
2022/09/20 10:35:15;;;;;;;;;;;;;;;22.88;53.16;102450.50;5067167;28;20293;-33
2022/09/20 10:37:53;;;;;;;;;;;;;;;23.01;51.62;102454.25;5055779;28;20010;-38
2022/09/20 10:43:13;;;;;;;;;;;;;;;22.96;50.33;102455.31;5072004;28;19943;-36
2022/09/20 10:43:19;;;;;;;;;;;;;;;22.85;51.70;102462.56;5069513;28;19929;-34
2022/09/20 10:45:55;;;;;;;;;;;;;;;22.72;49.20;102454.25;5064249;28;19925;-34
2022/09/20 10:48:48;;;;;;;;;;;;;;;22.45;49.71;102455.56;5069169;28;20007;-43
2022/09/20 10:51:22;;;;;;;;;;;;;;;22.33;50.39;102453.44;5058694;28;19935;-43
2022/09/20 10:53:52;;;;;;;;;;;;;;;22.31;50.94;102461.47;5056355;28;19932;-39
2022/09/20 10:56:26;;;;;;;;;;;;;;;22.25;50.29;102460.81;5059603;28;19925;-36
2022/09/20 10:59:09;;;;;;;;;;;;;;;22.39;52.19;102454.91;5056168;28;19940;-38
2022/09/20 11:01:44;;;;;;;;;;;;;;;22.67;52.95;102449.59;5057549;28;19924;-37
2022/09/20 11:04:21;;;;;;;;;;;;;;;22.92;51.07;102456.34;5057816;28;20297;-40
2022/09/20 11:06:55;;;;;;;;;;;;;;;23.18;51.19;102448.44;5058162;28;19994;-38
2022/09/20 11:09:25;;;;;;;;;;;;;;;23.46;49.97;102465.81;5056709;28;19928;-37
2022/09/20 11:11:57;;;;;;;;;;;;;;;23.69;47.22;102457.75;5058643;28;19928;-35
2022/09/20 11:14:32;;;;;;;;;;;;;;;23.93;46.90;102462.72;5056032;28;19937;-41
2022/09/20 11:17:05;;;;;;;;;;;;;;;24.07;44.67;102457.53;5059174;28;19925;-36
2022/09/20 11:19:38;;;;;;;;;;;;;;;23.83;42.69;102460.28;5055914;28;19925;-36
2022/09/20 11:22:08;;;;;;;;;;;;;;;23.62;44.12;102463.19;5068151;28;19932;-36
2022/09/20 11:24:37;;;;;;;;;;;;;;;23.71;45.36;102469.66;5067651;28;19964;-41
2022/09/20 11:27:08;;;;;;;;;;;;;;;23.96;45.28;102462.03;5061001;28;19928;-35
2022/09/20 11:29:37;;;;;;;;;;;;;;;24.19;43.35;102465.25;5052575;28;19929;-36
2022/09/20 11:32:12;;;;;;;;;;;;;;;24.36;43.40;102462.25;5062470;28;19978;-40
2022/09/20 11:34:47;;;;;;;;;;;;;;;24.47;42.34;102466.31;5052861;28;19925;-34
2022/09/20 11:37:15;;;;;;;;;;;;;;;24.59;41.56;102468.31;5071135;28;19997;-37
2022/09/20 11:39:46;;;;;;;;;;;;;;;24.61;41.41;102465.94;5070208;28;19986;-40
2022/09/20 11:42:16;;;;;;;;;;;;;;;24.68;41.81;102449.06;5060634;28;19928;-38
2022/09/20 11:44:44;;;;;;;;;;;;;;;24.71;43.94;102474.88;5069344;28;19928;-39
2022/09/20 11:47:17;;;;;;;;;;;;;;;24.71;42.68;102469.19;5060464;28;19933;-36
2022/09/20 11:50:16;;;;;;;;;;;;;;;24.56;45.09;102463.34;5056103;28;20501;-33
2022/09/20 11:52:57;;;;;;;;;;;;;;;24.31;44.66;102466.16;5071672;28;19925;-33
2022/09/20 11:55:33;;;;;;;;;;;;;;;24.02;46.37;102472.00;5070010;28;19928;-33
2022/09/20 11:58:02;;;;;;;;;;;;;;;23.62;44.81;102481.13;5061247;28;20393;-40
2022/09/20 12:00:31;;;;;;;;;;;;;;;23.19;46.94;102483.44;5068301;28;19987;-32
2022/09/20 12:03:02;;;;;;;;;;;;;;;22.80;47.96;102479.84;5062289;28;19929;-42
2022/09/20 12:05:32;;;;;;;;;;;;;;;22.39;48.27;102471.13;5052127;28;20271;-33
2022/09/20 12:08:01;;;;;;;;;;;;;;;22.03;51.62;102475.25;5062547;28;19924;-34
2022/09/20 12:10:31;;;;;;;;;;;;;;;21.76;53.40;102464.25;5052325;28;20594;-43
2022/09/20 12:13:01;;;;;;;;;;;;;;;21.48;53.47;102470.28;5067246;28;19991;-33
2022/09/20 12:15:30;;;;;;;;;;;;;;;21.18;54.21;102468.41;5071339;28;19928;-38
2022/09/20 12:18:03;;;;;;;;;;;;;;;20.90;54.04;102479.22;5065526;28;20307;-36
2022/09/20 12:20:54;;;;;;;;;;;;;;;20.58;55.97;102478.44;5051503;28;19929;-35
2022/09/20 12:23:55;;;;;;;;;;;;;;;20.21;58.91;102465.56;5064985;28;19925;-34
2022/09/20 12:26:35;;;;;;;;;;;;;;;19.91;61.82;102474.91;5031237;28;19937;-35
2022/09/20 12:29:25;;;;;;;;;;;;;;;19.80;64.01;102479.13;5039027;28;19955;-33
2022/09/20 12:31:54;;;;;;;;;;;;;;;19.76;65.62;102475.31;5059759;28;20027;-38
2022/09/20 12:34:34;;;;;;;;;;;;;;;19.82;65.63;102468.31;5059686;28;20403;-36
2022/09/20 12:37:18;;;;;;;;;;;;;;;19.80;65.95;102470.66;5054170;28;19928;-37
2022/09/20 12:39:51;;;;;;;;;;;;;;;19.72;65.30;102468.59;5057102;28;19924;-33
2022/09/20 12:42:27;;;;;;;;;;;;;;;19.76;65.96;102469.63;5055018;28;19928;-39
2022/09/20 12:44:59;;;;;;;;;;;;;;;19.90;67.05;102464.72;5058313;28;19956;-34
2022/09/20 12:47:30;;;;;;;;;;;;;;;20.13;64.57;102469.19;5053984;28;19985;-35
2022/09/20 12:52:57;;;;;;;;;;;;;;;20.50;56.64;102458.56;5055302;28;20354;-44
2022/09/20 12:55:38;;;;;;;;;;;;;;;20.58;52.44;102471.94;5055997;28;20294;-33
2022/09/20 12:58:17;;;;;;;;;;;;;;;20.59;50.74;102465.91;5058798;28;20050;-35
2022/09/20 13:00:46;;;;;;;;;;;;;;;20.59;50.51;102467.91;5058216;28;20386;-38
2022/09/20 13:03:27;;;;;;;;;;;;;;;20.57;50.22;102461.78;5060025;28;19971;-37
2022/09/20 13:06:13;;;;;;;;;;;;;;;20.61;51.67;102472.09;5058929;28;19929;-35
2022/09/20 13:08:42;;;;;;;;;;;;;;;20.63;51.39;102466.94;5062067;28;19928;-32
2022/09/20 13:11:12;;;;;;;;;;;;;;;20.61;51.17;102463.59;5056879;28;19990;-39
2022/09/20 13:13:43;;;;;;;;;;;;;;;20.66;51.03;102468.28;5060602;28;20324;-41
2022/09/20 13:16:18;;;;;;;;;;;;;;;20.66;50.20;102459.78;5058789;28;19924;-33
2022/09/20 13:18:49;;;;;;;;;;;;;;;20.67;51.45;102463.44;5060174;28;19931;-34